createdAt,value
2019-05-18T00:01:18.512Z,94917.69
2019-05-18T00:03:47.124Z,94927.05
2019-05-18T00:06:15.792Z,94921.98
2019-05-18T00:08:44.420Z,94928.78
2019-05-18T00:11:13.135Z,94922.81
2019-05-18T00:13:42.056Z,94919.79
2019-05-18T00:16:10.658Z,94921.02
2019-05-18T00:18:39.425Z,94921.02
2019-05-18T00:21:08.103Z,94925.73
2019-05-18T00:23:36.756Z,94916.34
2019-05-18T00:26:05.358Z,94916.34
2019-05-18T00:28:34.006Z,94924.85
2019-05-18T00:31:02.538Z,94924.09
2019-05-18T00:33:31.181Z,94915.59
2019-05-18T00:35:59.642Z,94918.69
2019-05-18T00:38:28.252Z,94920.86
2019-05-18T00:40:58.509Z,94917.41
2019-05-18T00:43:27.115Z,94915.69
2019-05-18T00:45:55.831Z,94917.87
2019-05-18T00:48:24.433Z,94921.88
2019-05-18T00:50:53.053Z,94919.78
2019-05-18T00:53:21.657Z,94915.89
2019-05-18T00:55:51.343Z,94922.23
2019-05-18T00:58:19.988Z,94927.73
2019-05-18T01:00:48.569Z,94923.92
2019-05-18T01:03:17.478Z,94926.92
2019-05-18T01:05:46.128Z,94917.98
2019-05-18T01:08:14.754Z,94915.34
2019-05-18T01:10:44.511Z,94924.25
2019-05-18T01:13:13.422Z,94928.99
2019-05-18T01:15:42.033Z,94929.81
2019-05-18T01:18:10.870Z,94933.64
2019-05-18T01:20:39.875Z,94924.20
2019-05-18T01:23:10.585Z,94923.36
2019-05-18T01:25:39.204Z,94914.83
2019-05-18T01:28:07.847Z,94917.31
2019-05-18T01:30:37.459Z,94915.59
2019-05-18T01:33:07.548Z,94914.36
2019-05-18T01:35:36.018Z,94913.92
2019-05-18T01:38:04.915Z,94910.06
2019-05-18T01:40:33.526Z,94916.44
2019-05-18T01:43:02.160Z,94915.17
2019-05-18T01:45:30.983Z,94899.41
2019-05-18T01:48:12.672Z,94902.41
2019-05-18T01:50:31.444Z,94899.84
2019-05-18T01:52:59.978Z,94903.69
2019-05-18T01:55:28.568Z,94897.73
2019-05-18T01:57:57.117Z,94899.02
2019-05-18T02:00:25.919Z,94904.13
2019-05-18T02:02:54.576Z,94907.55
2019-05-18T02:05:23.183Z,94920.78
2019-05-18T02:07:51.826Z,94920.78
2019-05-18T02:10:20.373Z,94914.38
2019-05-18T02:12:48.969Z,94907.62
2019-05-18T02:15:17.979Z,94909.90
2019-05-18T02:17:46.589Z,94909.13
2019-05-18T02:20:15.698Z,94910.48
2019-05-18T02:22:44.378Z,94911.73
2019-05-18T02:25:13.683Z,94906.64
2019-05-18T02:27:42.304Z,94897.80
2019-05-18T02:30:16.750Z,94901.63
2019-05-18T02:32:41.903Z,94897.80
2019-05-18T02:35:13.324Z,94898.70
2019-05-18T02:37:41.931Z,94886.34
2019-05-18T02:40:11.018Z,94880.83
2019-05-18T02:42:39.566Z,94889.84
2019-05-18T02:45:09.264Z,94885.62
2019-05-18T02:47:37.794Z,94893.68
2019-05-18T02:50:08.287Z,94895.80
2019-05-18T02:52:37.042Z,94895.41
2019-05-18T02:55:07.087Z,94898.42
2019-05-18T02:57:35.705Z,94901.44
2019-05-18T03:00:07.304Z,94903.19
2019-05-18T03:02:35.920Z,94895.56
2019-05-18T03:05:06.767Z,94900.41
2019-05-18T03:07:35.578Z,94897.95
2019-05-18T03:10:06.645Z,94894.95
2019-05-18T03:12:35.265Z,94893.22
2019-05-18T03:15:05.161Z,94897.05
2019-05-18T03:17:33.773Z,94905.17
2019-05-18T03:20:02.413Z,94898.52
2019-05-18T03:22:31.047Z,94901.16
2019-05-18T03:24:59.514Z,94902.81
2019-05-18T03:27:28.144Z,94903.25
2019-05-18T03:29:56.753Z,94909.27
2019-05-18T03:32:25.255Z,94906.34
2019-05-18T03:34:53.969Z,94901.24
2019-05-18T03:37:22.556Z,94898.23
2019-05-18T03:39:51.092Z,94905.45
2019-05-18T03:42:19.904Z,94905.05
2019-05-18T03:44:48.431Z,94910.92
2019-05-18T03:47:18.638Z,94911.27
2019-05-18T03:49:47.117Z,94909.91
2019-05-18T03:52:15.650Z,94913.21
2019-05-18T03:54:45.539Z,94917.44
2019-05-18T03:57:14.059Z,94917.48
2019-05-18T03:59:42.759Z,94909.86
2019-05-18T04:02:11.435Z,94908.98
2019-05-18T04:04:40.045Z,94908.47
2019-05-18T04:07:08.604Z,94905.81
2019-05-18T04:09:37.100Z,94898.89
2019-05-18T04:12:06.429Z,94897.50
2019-05-18T04:14:35.075Z,94899.97
2019-05-18T04:17:03.611Z,94900.63
2019-05-18T04:19:45.744Z,94902.16
2019-05-18T04:22:02.395Z,94899.02
2019-05-18T04:24:30.998Z,94897.05
2019-05-18T04:26:59.549Z,94895.08
2019-05-18T04:29:28.206Z,94893.08
2019-05-18T04:31:56.785Z,94897.05
2019-05-18T04:34:25.360Z,94885.65
2019-05-18T04:36:53.979Z,94883.98
2019-05-18T04:39:22.659Z,94885.29
2019-05-18T04:41:51.344Z,94875.47
2019-05-18T04:44:20.003Z,94874.57
2019-05-18T04:46:48.611Z,94869.75
2019-05-18T04:49:17.146Z,94870.84
2019-05-18T04:51:45.612Z,94869.87
2019-05-18T04:54:14.218Z,94866.20
2019-05-18T04:56:43.318Z,94871.44
2019-05-18T04:59:12.291Z,94870.23
2019-05-18T05:01:40.956Z,94867.75
2019-05-18T05:04:09.559Z,94866.30
2019-05-18T05:06:39.573Z,94861.52
2019-05-18T05:09:08.773Z,94861.00
2019-05-18T05:11:37.413Z,94854.02
2019-05-18T05:14:06.026Z,94847.45
2019-05-18T05:16:34.684Z,94842.91
2019-05-18T05:19:03.247Z,94844.75
2019-05-18T05:21:32.090Z,94844.65
2019-05-18T05:24:00.763Z,94841.47
2019-05-18T05:26:29.605Z,94837.62
2019-05-18T05:28:58.150Z,94831.45
2019-05-18T05:31:26.707Z,94839.92
2019-05-18T05:33:55.243Z,94837.66
2019-05-18T05:36:23.854Z,94834.39
2019-05-18T05:38:52.428Z,94827.25
2019-05-18T05:41:21.128Z,94827.84
2019-05-18T05:43:49.744Z,94821.99
2019-05-18T05:46:18.327Z,94820.83
2019-05-18T05:48:46.867Z,94819.02
2019-05-18T05:51:15.524Z,94820.70
2019-05-18T05:53:44.064Z,94812.45
2019-05-18T05:56:12.632Z,94811.80
2019-05-18T05:58:41.306Z,94814.55
2019-05-18T06:01:11.962Z,94817.95
2019-05-18T06:03:40.108Z,94809.34
2019-05-18T06:06:08.611Z,94808.55
2019-05-18T06:08:37.231Z,94815.05
2019-05-18T06:11:05.841Z,94812.91
2019-05-18T06:13:37.228Z,94817.73
2019-05-18T06:16:05.814Z,94815.17
2019-05-18T06:18:34.511Z,94812.75
2019-05-18T06:21:03.124Z,94816.80
2019-05-18T06:23:31.628Z,94821.61
2019-05-18T06:26:00.163Z,94819.53
2019-05-18T06:28:28.719Z,94825.70
2019-05-18T06:30:57.262Z,94825.41
2019-05-18T06:33:25.800Z,94828.89
2019-05-18T06:35:54.502Z,94828.66
2019-05-18T06:38:23.170Z,94828.91
2019-05-18T06:40:51.643Z,94830.42
2019-05-18T06:43:20.181Z,94827.59
2019-05-18T06:45:48.799Z,94827.91
2019-05-18T06:48:17.283Z,94830.68
2019-05-18T06:50:45.752Z,94823.65
2019-05-18T06:53:14.267Z,94822.59
2019-05-18T06:55:43.188Z,94815.55
2019-05-18T06:58:12.554Z,94819.67
2019-05-18T07:00:41.268Z,94822.03
2019-05-18T07:03:09.906Z,94819.51
2019-05-18T07:05:38.531Z,94817.92
2019-05-18T07:08:07.141Z,94823.42
2019-05-18T07:10:35.890Z,94820.45
2019-05-18T07:13:04.629Z,94813.38
2019-05-18T07:15:33.227Z,94814.50
2019-05-18T07:18:01.776Z,94817.30
2019-05-18T07:20:30.316Z,94810.45
2019-05-18T07:22:58.919Z,94810.79
2019-05-18T07:25:27.536Z,94808.88
2019-05-18T07:27:56.090Z,94808.59
2019-05-18T07:30:27.435Z,94805.37
2019-05-18T07:32:56.088Z,94804.78
2019-05-18T07:35:24.729Z,94807.80
2019-05-18T07:37:53.200Z,94803.05
2019-05-18T07:40:21.816Z,94804.27
2019-05-18T07:42:50.349Z,94800.05
2019-05-18T07:45:18.960Z,94805.64
2019-05-18T07:47:47.503Z,94807.77
2019-05-18T07:50:16.399Z,94810.27
2019-05-18T07:52:44.943Z,94805.50
2019-05-18T07:55:13.690Z,94807.20
2019-05-18T07:57:42.254Z,94812.54
2019-05-18T08:00:11.500Z,94809.77
2019-05-18T08:02:41.002Z,94813.47
2019-05-18T08:05:10.137Z,94802.02
2019-05-18T08:07:38.788Z,94816.23
2019-05-18T08:10:09.587Z,94802.55
2019-05-18T08:12:38.221Z,94799.14
2019-05-18T08:15:10.328Z,94803.53
2019-05-18T08:17:38.938Z,94795.48
2019-05-18T08:20:08.578Z,94797.75
2019-05-18T08:22:37.185Z,94795.34
2019-05-18T08:25:07.467Z,94797.59
2019-05-18T08:27:35.933Z,94797.92
2019-05-18T08:30:06.496Z,94793.91
2019-05-18T08:32:35.163Z,94793.92
2019-05-18T08:35:04.783Z,94790.70
2019-05-18T08:37:33.320Z,94791.19
2019-05-18T08:40:02.057Z,94786.18
2019-05-18T08:42:30.586Z,94782.98
2019-05-18T08:44:59.327Z,94783.22
2019-05-18T08:47:27.933Z,94779.41
2019-05-18T08:49:56.392Z,94786.91
2019-05-18T08:52:24.955Z,94782.16
2019-05-18T08:54:53.536Z,94786.44
2019-05-18T08:57:22.075Z,94787.03
2019-05-18T08:59:50.595Z,94782.73
2019-05-18T09:02:19.201Z,94783.47
2019-05-18T09:04:47.775Z,94777.39
2019-05-18T09:07:16.417Z,94772.88
2019-05-18T09:09:45.200Z,94777.64
2019-05-18T09:12:13.816Z,94775.88
2019-05-18T09:14:42.443Z,94776.70
2019-05-18T09:17:11.051Z,94784.05
2019-05-18T09:19:39.655Z,94779.19
2019-05-18T09:22:21.250Z,94771.20
2019-05-18T09:24:38.605Z,94771.55
2019-05-18T09:27:08.723Z,94764.07
2019-05-18T09:29:37.282Z,94761.11
2019-05-18T09:32:05.900Z,94770.53
2019-05-18T09:34:37.052Z,94764.15
2019-05-18T09:37:05.658Z,94766.92
2019-05-18T09:39:34.295Z,94760.86
2019-05-18T09:42:02.921Z,94757.88
2019-05-18T09:44:31.544Z,94755.24
2019-05-18T09:47:00.156Z,94763.03
2019-05-18T09:49:28.831Z,94758.38
2019-05-18T09:51:57.448Z,94757.51
2019-05-18T09:54:26.035Z,94761.34
2019-05-18T09:56:54.643Z,94759.61
2019-05-18T09:59:23.247Z,94761.23
2019-05-18T10:01:51.856Z,94759.64
2019-05-18T10:04:20.690Z,94758.64
2019-05-18T10:06:49.455Z,94752.98
2019-05-18T10:09:18.106Z,94753.78
2019-05-18T10:11:46.654Z,94761.45
2019-05-18T10:14:16.879Z,94756.93
2019-05-18T10:16:45.379Z,94756.84
2019-05-18T10:19:13.943Z,94759.50
2019-05-18T10:21:42.478Z,94751.95
2019-05-18T10:24:11.925Z,94755.65
2019-05-18T10:26:40.617Z,94751.23
2019-05-18T10:29:09.324Z,94756.58
2019-05-18T10:31:37.959Z,94751.89
2019-05-18T10:34:06.574Z,94742.63
2019-05-18T10:36:35.285Z,94747.63
2019-05-18T10:39:05.383Z,94746.74
2019-05-18T10:41:33.997Z,94745.30
2019-05-18T10:44:02.634Z,94745.61
2019-05-18T10:46:31.243Z,94738.25
2019-05-18T10:49:02.158Z,94738.04
2019-05-18T10:51:30.706Z,94737.52
2019-05-18T10:53:59.267Z,94736.67
2019-05-18T10:56:30.736Z,94729.86
2019-05-18T10:58:58.504Z,94725.98
2019-05-18T11:01:27.113Z,94723.34
2019-05-18T11:03:55.723Z,94717.16
2019-05-18T11:06:24.340Z,94720.77
2019-05-18T11:08:52.966Z,94715.03
2019-05-18T11:11:21.506Z,94716.97
2019-05-18T11:13:50.237Z,94708.89
2019-05-18T11:16:18.911Z,94698.67
2019-05-18T11:18:47.516Z,94693.99
2019-05-18T11:21:16.279Z,94694.45
2019-05-18T11:23:47.858Z,94685.17
2019-05-18T11:26:15.499Z,94681.70
2019-05-18T11:28:44.176Z,94685.17
2019-05-18T11:31:12.859Z,94688.70
2019-05-18T11:33:41.458Z,94675.07
2019-05-18T11:36:10.413Z,94675.58
2019-05-18T11:38:39.012Z,94670.67
2019-05-18T11:41:07.622Z,94673.56
2019-05-18T11:43:36.328Z,94672.33
2019-05-18T11:46:04.932Z,94675.47
2019-05-18T11:48:33.551Z,94675.27
2019-05-18T11:51:02.157Z,94673.72
2019-05-18T11:53:30.738Z,94677.00
2019-05-18T11:55:59.349Z,94679.23
2019-05-18T11:58:28.023Z,94678.79
2019-05-18T12:00:56.600Z,94675.47
2019-05-18T12:03:25.506Z,94667.33
2019-05-18T12:05:54.034Z,94669.80
2019-05-18T12:08:22.714Z,94665.02
2019-05-18T12:10:52.301Z,94664.19
2019-05-18T12:13:22.484Z,94671.47
2019-05-18T12:15:51.295Z,94674.98
2019-05-18T12:18:19.901Z,94672.67
2019-05-18T12:20:48.504Z,94667.94
2019-05-18T12:23:17.037Z,94664.85
2019-05-18T12:25:45.750Z,94668.06
2019-05-18T12:28:14.514Z,94663.80
2019-05-18T12:30:43.142Z,94670.04
2019-05-18T12:33:11.766Z,94663.14
2019-05-18T12:35:40.333Z,94664.13
2019-05-18T12:38:08.941Z,94664.41
2019-05-18T12:40:37.540Z,94671.02
2019-05-18T12:43:08.207Z,94660.42
2019-05-18T12:45:36.494Z,94657.75
2019-05-18T12:48:05.101Z,94651.41
2019-05-18T12:50:33.709Z,94644.87
2019-05-18T12:53:02.414Z,94640.45
2019-05-18T12:55:31.123Z,94633.66
2019-05-18T12:57:59.736Z,94633.53
2019-05-18T13:00:28.440Z,94629.09
2019-05-18T13:02:57.114Z,94621.34
2019-05-18T13:05:25.745Z,94622.77
2019-05-18T13:07:54.327Z,94613.14
2019-05-18T13:10:23.300Z,94614.18
2019-05-18T13:12:51.962Z,94608.84
2019-05-18T13:15:21.333Z,94599.45
2019-05-18T13:17:49.867Z,94588.34
2019-05-18T13:20:19.344Z,94583.89
2019-05-18T13:22:48.032Z,94580.63
2019-05-18T13:25:18.155Z,94581.13
2019-05-18T13:27:46.769Z,94581.13
2019-05-18T13:30:19.839Z,94575.70
2019-05-18T13:32:47.566Z,94584.98
2019-05-18T13:35:17.180Z,94590.13
2019-05-18T13:37:45.811Z,94589.71
2019-05-18T13:40:16.859Z,94591.52
2019-05-18T13:42:45.426Z,94589.90
2019-05-18T13:45:15.630Z,94591.48
2019-05-18T13:47:44.235Z,94596.98
2019-05-18T13:50:14.695Z,94596.70
2019-05-18T13:52:44.101Z,94595.48
2019-05-18T13:55:12.760Z,94600.31
2019-05-18T13:57:41.381Z,94610.03
2019-05-18T14:00:11.382Z,94613.08
2019-05-18T14:02:39.996Z,94606.22
2019-05-18T14:05:09.425Z,94606.41
2019-05-18T14:07:38.065Z,94601.65
2019-05-18T14:10:12.644Z,94605.91
2019-05-18T14:12:41.089Z,94604.77
2019-05-18T14:15:10.585Z,94605.39
2019-05-18T14:17:39.740Z,94614.13
2019-05-18T14:20:08.880Z,94598.41
2019-05-18T14:22:37.514Z,94595.52
2019-05-18T14:25:19.355Z,94596.14
2019-05-18T14:27:40.957Z,94588.16
2019-05-18T14:30:10.712Z,94591.16
2019-05-18T14:32:39.384Z,94588.83
2019-05-18T14:35:08.999Z,94584.11
2019-05-18T14:37:37.641Z,94570.68
2019-05-18T14:40:07.879Z,94567.79
2019-05-18T14:42:36.480Z,94561.03
2019-05-18T14:45:08.103Z,94555.14
2019-05-18T14:47:36.611Z,94543.09
2019-05-18T14:50:07.218Z,94542.61
2019-05-18T14:52:36.287Z,94541.05
2019-05-18T14:55:06.531Z,94539.84
2019-05-18T14:57:35.931Z,94538.19
2019-05-18T15:00:05.959Z,94534.47
2019-05-18T15:02:34.532Z,94529.14
2019-05-18T15:05:03.151Z,94529.31
2019-05-18T15:07:31.765Z,94533.52
2019-05-18T15:10:01.237Z,94533.08
2019-05-18T15:12:30.471Z,94529.61
2019-05-18T15:15:00.114Z,94532.65
2019-05-18T15:17:28.736Z,94528.61
2019-05-18T15:19:57.349Z,94530.47
2019-05-18T15:22:25.897Z,94524.16
2019-05-18T15:24:54.445Z,94525.53
2019-05-18T15:27:23.058Z,94522.34
2019-05-18T15:29:51.590Z,94517.88
2019-05-18T15:32:20.207Z,94520.95
2019-05-18T15:34:48.818Z,94516.66
2019-05-18T15:37:17.454Z,94516.66
2019-05-18T15:39:46.006Z,94515.75
2019-05-18T15:42:14.579Z,94518.96
2019-05-18T15:44:43.122Z,94512.72
2019-05-18T15:47:11.763Z,94523.77
2019-05-18T15:49:40.566Z,94528.02
2019-05-18T15:52:09.698Z,94531.61
2019-05-18T15:54:38.340Z,94533.39
2019-05-18T15:57:06.972Z,94542.95
2019-05-18T15:59:35.602Z,94540.92
2019-05-18T16:02:06.425Z,94542.05
2019-05-18T16:04:34.595Z,94540.02
2019-05-18T16:07:03.195Z,94534.81
2019-05-18T16:09:31.776Z,94539.55
2019-05-18T16:12:00.597Z,94536.11
2019-05-18T16:14:29.204Z,94537.63
2019-05-18T16:16:57.804Z,94536.42
2019-05-18T16:19:26.384Z,94546.55
2019-05-18T16:21:56.109Z,94542.95
2019-05-18T16:24:24.684Z,94546.67
2019-05-18T16:26:53.443Z,94551.61
2019-05-18T16:29:22.083Z,94555.16
2019-05-18T16:31:50.616Z,94559.73
2019-05-18T16:34:19.273Z,94557.78
2019-05-18T16:36:47.805Z,94552.85
2019-05-18T16:39:16.587Z,94556.04
2019-05-18T16:41:45.201Z,94558.91
2019-05-18T16:44:13.850Z,94562.06
2019-05-18T16:46:42.438Z,94561.53
2019-05-18T16:49:11.073Z,94564.86
2019-05-18T16:51:39.717Z,94563.30
2019-05-18T16:54:08.420Z,94562.55
2019-05-18T16:56:37.083Z,94562.55
2019-05-18T16:59:05.691Z,94553.38
2019-05-18T17:01:34.331Z,94559.78
2019-05-18T17:04:02.880Z,94556.89
2019-05-18T17:06:31.511Z,94556.89
2019-05-18T17:09:00.125Z,94560.52
2019-05-18T17:11:28.672Z,94556.14
2019-05-18T17:13:57.307Z,94554.14
2019-05-18T17:16:25.843Z,94550.98
2019-05-18T17:18:54.699Z,94555.89
2019-05-18T17:21:24.845Z,94555.40
2019-05-18T17:23:53.779Z,94552.67
2019-05-18T17:26:22.572Z,94550.01
2019-05-18T17:28:51.179Z,94554.09
2019-05-18T17:31:19.810Z,94549.74
2019-05-18T17:33:48.282Z,94544.45
2019-05-18T17:36:19.556Z,94545.00
2019-05-18T17:38:47.166Z,94544.69
2019-05-18T17:41:15.788Z,94546.61
2019-05-18T17:43:44.358Z,94545.03
2019-05-18T17:46:12.948Z,94552.59
2019-05-18T17:48:41.570Z,94551.63
2019-05-18T17:51:10.179Z,94555.22
2019-05-18T17:53:38.909Z,94560.64
2019-05-18T17:56:07.545Z,94555.02
2019-05-18T17:58:36.245Z,94556.76
2019-05-18T18:01:04.968Z,94555.58
2019-05-18T18:03:33.593Z,94556.38
2019-05-18T18:06:02.204Z,94555.66
2019-05-18T18:08:30.715Z,94558.30
2019-05-18T18:10:59.383Z,94559.48
2019-05-18T18:13:28.004Z,94562.19
2019-05-18T18:15:56.585Z,94564.86
2019-05-18T18:18:25.234Z,94565.64
2019-05-18T18:20:53.780Z,94564.00
2019-05-18T18:23:22.395Z,94566.73
2019-05-18T18:25:51.052Z,94571.91
2019-05-18T18:28:19.991Z,94583.63
2019-05-18T18:30:48.602Z,94583.93
2019-05-18T18:33:17.229Z,94587.57
2019-05-18T18:35:45.893Z,94588.49
2019-05-18T18:38:14.448Z,94592.42
2019-05-18T18:40:44.258Z,94591.88
2019-05-18T18:43:12.886Z,94594.69
2019-05-18T18:45:41.999Z,94592.79
2019-05-18T18:48:10.678Z,94593.94
2019-05-18T18:50:39.299Z,94593.23
2019-05-18T18:53:07.923Z,94595.27
2019-05-18T18:55:36.490Z,94598.59
2019-05-18T18:58:05.130Z,94595.77
2019-05-18T19:00:33.699Z,94595.55
2019-05-18T19:03:02.348Z,94596.37
2019-05-18T19:05:30.996Z,94599.91
2019-05-18T19:07:59.551Z,94595.57
2019-05-18T19:10:28.192Z,94598.42
2019-05-18T19:12:56.802Z,94598.69
2019-05-18T19:15:25.343Z,94599.05
2019-05-18T19:17:53.954Z,94598.75
2019-05-18T19:20:22.575Z,94599.16
2019-05-18T19:22:51.219Z,94601.94
2019-05-18T19:25:19.866Z,94602.97
2019-05-18T19:27:55.099Z,94600.99
2019-05-18T19:30:18.746Z,94597.84
2019-05-18T19:32:47.370Z,94601.64
2019-05-18T19:35:15.974Z,94597.08
2019-05-18T19:37:44.547Z,94593.12
2019-05-18T19:40:13.960Z,94593.88
2019-05-18T19:42:42.554Z,94598.21
2019-05-18T19:45:11.868Z,94595.88
2019-05-18T19:47:40.498Z,94588.48
2019-05-18T19:50:09.947Z,94595.85
2019-05-18T19:52:38.521Z,94599.08
2019-05-18T19:55:07.949Z,94604.48
2019-05-18T19:57:36.492Z,94597.97
2019-05-18T20:00:08.442Z,94602.20
2019-05-18T20:02:36.987Z,94601.88
2019-05-18T20:05:09.559Z,94602.52
2019-05-18T20:07:38.414Z,94598.84
2019-05-18T20:10:10.770Z,94598.56
2019-05-18T20:12:39.420Z,94597.14
2019-05-18T20:15:10.054Z,94597.87
2019-05-18T20:17:38.920Z,94596.44
2019-05-18T20:20:08.028Z,94597.63
2019-05-18T20:22:36.638Z,94598.25
2019-05-18T20:25:06.334Z,94595.03
2019-05-18T20:27:35.051Z,94596.03
2019-05-18T20:30:05.411Z,94594.46
2019-05-18T20:32:34.025Z,94597.48
2019-05-18T20:35:02.718Z,94592.53
2019-05-18T20:37:31.150Z,94595.82
2019-05-18T20:39:59.658Z,94599.47
2019-05-18T20:42:28.561Z,94590.14
2019-05-18T20:44:57.120Z,94586.00
2019-05-18T20:47:25.832Z,94584.34
2019-05-18T20:49:54.590Z,94583.84
2019-05-18T20:52:23.326Z,94579.53
2019-05-18T20:54:51.977Z,94577.84
2019-05-18T20:57:20.441Z,94580.13
2019-05-18T20:59:49.061Z,94577.02
2019-05-18T21:02:17.605Z,94581.48
2019-05-18T21:04:46.230Z,94583.61
2019-05-18T21:07:14.807Z,94578.13
2019-05-18T21:09:43.417Z,94571.80
2019-05-18T21:12:11.991Z,94573.58
2019-05-18T21:14:40.529Z,94572.42
2019-05-18T21:17:09.088Z,94572.99
2019-05-18T21:19:37.677Z,94570.63
2019-05-18T21:22:06.419Z,94572.17
2019-05-18T21:24:34.959Z,94575.84
2019-05-18T21:27:03.567Z,94574.63
2019-05-18T21:29:32.214Z,94576.00
2019-05-18T21:32:00.929Z,94583.38
2019-05-18T21:34:29.789Z,94587.79
2019-05-18T21:36:58.364Z,94584.86
2019-05-18T21:39:27.796Z,94585.30
2019-05-18T21:41:56.479Z,94581.61
2019-05-18T21:44:25.060Z,94580.83
2019-05-18T21:46:53.703Z,94590.95
2019-05-18T21:49:23.035Z,94592.83
2019-05-18T21:51:51.600Z,94595.44
2019-05-18T21:54:20.212Z,94601.09
2019-05-18T21:56:48.788Z,94595.74
2019-05-18T21:59:17.431Z,94598.46
2019-05-18T22:01:46.040Z,94596.05
2019-05-18T22:04:14.670Z,94594.53
2019-05-18T22:06:43.278Z,94590.49
2019-05-18T22:09:11.916Z,94592.75
2019-05-18T22:11:40.653Z,94593.69
2019-05-18T22:14:09.193Z,94588.97
2019-05-18T22:16:37.813Z,94586.00
2019-05-18T22:19:06.429Z,94591.23
2019-05-18T22:21:35.036Z,94584.17
2019-05-18T22:24:03.712Z,94585.15
2019-05-18T22:26:32.255Z,94585.95
2019-05-18T22:29:00.793Z,94583.83
2019-05-18T22:31:29.538Z,94584.77
2019-05-18T22:33:58.148Z,94583.22
2019-05-18T22:36:26.699Z,94575.52
2019-05-18T22:38:55.183Z,94574.24
2019-05-18T22:41:26.388Z,94572.13
2019-05-18T22:43:55.075Z,94573.11
2019-05-18T22:46:23.767Z,94574.91
2019-05-18T22:48:52.389Z,94565.07
2019-05-18T22:51:21.000Z,94562.65
2019-05-18T22:53:49.645Z,94559.33
2019-05-18T22:56:18.254Z,94555.97
2019-05-18T22:58:46.760Z,94555.69
2019-05-18T23:01:15.554Z,94554.89
2019-05-18T23:03:44.165Z,94548.14
2019-05-18T23:06:12.705Z,94549.84
2019-05-18T23:08:41.204Z,94547.84
2019-05-18T23:11:09.838Z,94545.06
2019-05-18T23:13:40.063Z,94544.27
2019-05-18T23:16:08.668Z,94542.19
2019-05-18T23:18:37.317Z,94537.45
2019-05-18T23:21:05.851Z,94540.46
2019-05-18T23:23:34.479Z,94537.59
2019-05-18T23:26:03.060Z,94547.11
2019-05-18T23:28:31.534Z,94539.48
2019-05-18T23:31:00.173Z,94536.75
2019-05-18T23:33:28.652Z,94536.05
2019-05-18T23:35:57.168Z,94546.78
2019-05-18T23:38:25.702Z,94551.07
2019-05-18T23:40:54.422Z,94546.91
2019-05-18T23:43:23.035Z,94551.69
2019-05-18T23:45:51.653Z,94548.88
2019-05-18T23:48:20.466Z,94550.28
2019-05-18T23:50:49.218Z,94552.52
2019-05-18T23:53:17.861Z,94549.52
2019-05-18T23:55:46.469Z,94543.14
2019-05-18T23:58:14.973Z,94549.30
